createdAt,value
2018-11-06T00:01:08.991Z,7.3
2018-11-06T00:04:08.799Z,7.3
2018-11-06T00:07:08.909Z,7.3
2018-11-06T00:10:09.127Z,7.3
2018-11-06T00:13:09.101Z,7.3
2018-11-06T00:16:08.985Z,7.3
2018-11-06T00:19:08.993Z,7.3
2018-11-06T00:22:08.821Z,7.3
2018-11-06T00:25:08.962Z,7.3
2018-11-06T00:28:09.292Z,7.3
2018-11-06T00:31:08.802Z,7.3
2018-11-06T00:34:10.837Z,7.3
2018-11-06T00:37:08.956Z,7.3
2018-11-06T00:40:08.840Z,7.3
2018-11-06T00:43:08.845Z,7.3
2018-11-06T00:46:08.972Z,7.3
2018-11-06T00:49:08.978Z,7.3
2018-11-06T00:52:08.969Z,7.3
2018-11-06T00:55:08.994Z,7.3
2018-11-06T00:58:08.884Z,7.3
2018-11-06T01:01:08.820Z,7
2018-11-06T01:04:08.909Z,7
2018-11-06T01:07:08.787Z,7
2018-11-06T01:10:08.866Z,7
2018-11-06T01:13:09.217Z,7
2018-11-06T01:16:09.228Z,7
2018-11-06T01:19:08.838Z,7
2018-11-06T01:22:09.033Z,7
2018-11-06T01:25:09.074Z,7
2018-11-06T01:28:08.819Z,7
2018-11-06T01:31:09.144Z,7
2018-11-06T01:34:08.994Z,7
2018-11-06T01:37:08.772Z,7
2018-11-06T01:40:08.847Z,7
2018-11-06T01:43:08.926Z,7
2018-11-06T01:46:08.906Z,7
2018-11-06T01:49:08.911Z,7
2018-11-06T01:52:09.003Z,7
2018-11-06T01:55:08.768Z,7
2018-11-06T01:58:08.841Z,7
2018-11-06T02:01:08.918Z,6.8
2018-11-06T02:04:09.008Z,6.8
2018-11-06T02:07:08.906Z,6.8
2018-11-06T02:10:09.026Z,6.8
2018-11-06T02:13:08.877Z,6.8
2018-11-06T02:16:09.029Z,6.8
2018-11-06T02:19:08.894Z,6.8
2018-11-06T02:22:08.868Z,6.8
2018-11-06T02:25:08.870Z,6.8
2018-11-06T02:28:08.915Z,6.8
2018-11-06T02:31:08.952Z,6.8
2018-11-06T02:34:08.903Z,6.8
2018-11-06T02:37:08.873Z,6.8
2018-11-06T02:40:08.910Z,6.8
2018-11-06T02:43:09.289Z,6.8
2018-11-06T02:46:09.142Z,6.8
2018-11-06T02:49:08.687Z,6.8
2018-11-06T02:52:08.963Z,6.8
2018-11-06T02:55:08.826Z,6.8
2018-11-06T02:58:09.046Z,6.8
2018-11-06T03:01:08.742Z,6.6
2018-11-06T03:04:08.882Z,6.6
2018-11-06T03:07:08.925Z,6.6
2018-11-06T03:10:10.025Z,6.6
2018-11-06T03:13:08.832Z,6.6
2018-11-06T03:16:08.917Z,6.6
2018-11-06T03:19:08.715Z,6.6
2018-11-06T03:22:08.810Z,6.6
2018-11-06T03:25:08.823Z,6.6
2018-11-06T03:28:08.935Z,6.6
2018-11-06T03:31:08.857Z,6.6
2018-11-06T03:34:09.073Z,6.6
2018-11-06T03:37:09.063Z,6.6
2018-11-06T03:40:08.833Z,6.6
2018-11-06T03:43:08.932Z,6.6
2018-11-06T03:46:08.886Z,6.6
2018-11-06T03:49:08.651Z,6.6
2018-11-06T03:52:08.802Z,6.6
2018-11-06T03:55:08.841Z,6.6
2018-11-06T03:58:09.040Z,6.6
2018-11-06T04:01:08.791Z,6.4
2018-11-06T04:04:08.965Z,6.4
2018-11-06T04:07:09.241Z,6.4
2018-11-06T04:10:09.080Z,6.4
2018-11-06T04:13:08.927Z,6.4
2018-11-06T04:16:08.935Z,6.4
2018-11-06T04:19:09.237Z,6.4
2018-11-06T04:22:08.822Z,6.4
2018-11-06T04:25:08.921Z,6.4
2018-11-06T04:28:09.081Z,6.4
2018-11-06T04:31:08.751Z,6.4
2018-11-06T04:34:08.786Z,6.4
2018-11-06T04:37:08.927Z,6.4
2018-11-06T04:40:08.811Z,6.4
2018-11-06T04:43:08.872Z,6.4
2018-11-06T04:46:09.558Z,6.4
2018-11-06T04:49:08.876Z,6.4
2018-11-06T04:52:08.788Z,6.4
2018-11-06T04:55:08.986Z,6.4
2018-11-06T04:58:08.863Z,6.4
2018-11-06T05:01:08.856Z,6.2
2018-11-06T05:04:08.856Z,6.2
2018-11-06T05:07:08.885Z,6.2
2018-11-06T05:10:08.920Z,6.2
2018-11-06T05:13:08.894Z,6.2
2018-11-06T05:16:09.022Z,6.2
2018-11-06T05:19:08.913Z,6.2
2018-11-06T05:22:08.931Z,6.2
2018-11-06T05:25:09.138Z,6.2
2018-11-06T05:28:09.170Z,6.2
2018-11-06T05:31:09.127Z,6.2
2018-11-06T05:34:08.957Z,6.2
2018-11-06T05:37:08.966Z,6.2
2018-11-06T05:40:09.135Z,6.2
2018-11-06T05:43:09.091Z,6.2
2018-11-06T05:46:08.747Z,6.2
2018-11-06T05:49:09.120Z,6.2
2018-11-06T05:52:09.014Z,6.2
2018-11-06T05:55:08.839Z,6.2
2018-11-06T05:58:09.022Z,6.2
2018-11-06T06:01:08.950Z,6.1
2018-11-06T06:04:09.298Z,6.1
2018-11-06T06:07:08.768Z,6.1
2018-11-06T06:10:08.713Z,6.1
2018-11-06T06:13:08.866Z,6.1
2018-11-06T06:16:08.604Z,6.1
2018-11-06T06:19:09.112Z,6.1
2018-11-06T06:22:08.868Z,6.1
2018-11-06T06:25:08.909Z,6.1
2018-11-06T06:28:08.757Z,6.1
2018-11-06T06:31:08.824Z,6.1
2018-11-06T06:34:08.795Z,6.1
2018-11-06T06:37:08.643Z,6.1
2018-11-06T06:40:10.837Z,6.1
2018-11-06T06:43:08.775Z,6.1
2018-11-06T06:46:09.600Z,6.1
2018-11-06T06:49:08.829Z,6.1
2018-11-06T06:52:09.007Z,6.1
2018-11-06T06:55:11.473Z,6.1
2018-11-06T06:58:08.637Z,6.1
2018-11-06T07:01:08.941Z,6
2018-11-06T07:04:08.754Z,6
2018-11-06T07:07:09.218Z,6
2018-11-06T07:10:08.768Z,6
2018-11-06T07:13:10.458Z,6
2018-11-06T07:16:09.045Z,6
2018-11-06T07:19:08.780Z,6
2018-11-06T07:22:08.875Z,6
2018-11-06T07:25:08.845Z,6
2018-11-06T07:28:09.180Z,6
2018-11-06T07:31:08.635Z,6
2018-11-06T07:34:08.753Z,6
2018-11-06T07:37:08.901Z,6
2018-11-06T07:40:08.688Z,6
2018-11-06T07:43:09.098Z,6
2018-11-06T07:46:09.578Z,6
2018-11-06T07:49:08.846Z,6
2018-11-06T07:52:08.866Z,6
2018-11-06T07:55:08.768Z,6
2018-11-06T07:58:08.767Z,6
2018-11-06T08:01:08.771Z,5.9
2018-11-06T08:04:09.581Z,5.9
2018-11-06T08:07:08.747Z,5.9
2018-11-06T08:10:08.803Z,5.9
2018-11-06T08:13:08.544Z,5.9
2018-11-06T08:16:08.572Z,5.9
2018-11-06T08:19:08.740Z,5.9
2018-11-06T08:22:08.538Z,5.9
2018-11-06T08:25:08.952Z,5.9
2018-11-06T08:28:09.011Z,5.9
2018-11-06T08:31:13.692Z,5.9
2018-11-06T08:34:08.577Z,5.9
2018-11-06T08:37:11.518Z,5.9
2018-11-06T08:40:08.798Z,5.9
2018-11-06T08:43:08.604Z,5.9
2018-11-06T08:46:09.116Z,5.9
2018-11-06T08:49:08.932Z,5.9
2018-11-06T08:52:08.842Z,5.9
2018-11-06T08:55:08.873Z,5.9
2018-11-06T08:58:08.898Z,5.9
2018-11-06T09:01:08.833Z,5.8
2018-11-06T09:04:08.778Z,5.8
2018-11-06T09:07:08.650Z,5.8
2018-11-06T09:10:09.364Z,5.8
2018-11-06T09:13:08.858Z,5.8
2018-11-06T09:16:08.619Z,5.8
2018-11-06T09:19:08.673Z,5.8
2018-11-06T09:22:09.264Z,5.8
2018-11-06T09:25:09.024Z,5.8
2018-11-06T09:28:09.154Z,5.8
2018-11-06T09:31:10.696Z,5.8
2018-11-06T09:34:08.871Z,5.8
2018-11-06T09:37:08.811Z,5.8
2018-11-06T09:40:08.695Z,5.8
2018-11-06T09:43:08.790Z,5.8
2018-11-06T09:46:08.623Z,5.8
2018-11-06T09:49:08.738Z,5.8
2018-11-06T09:52:11.022Z,5.8
2018-11-06T09:55:09.043Z,5.8
2018-11-06T09:58:08.581Z,5.8
2018-11-06T10:01:09.544Z,5.8
2018-11-06T10:04:08.869Z,5.8
2018-11-06T10:07:15.911Z,5.8
2018-11-06T10:10:09.008Z,5.8
2018-11-06T10:13:08.712Z,5.8
2018-11-06T10:16:09.058Z,5.8
2018-11-06T10:19:08.581Z,5.8
2018-11-06T10:22:08.876Z,5.8
2018-11-06T10:25:09.046Z,5.8
2018-11-06T10:28:09.108Z,5.8
2018-11-06T10:31:08.920Z,5.8
2018-11-06T10:34:08.700Z,5.8
2018-11-06T10:37:08.520Z,5.8
2018-11-06T10:40:08.703Z,5.8
2018-11-06T10:43:08.636Z,5.8
2018-11-06T10:46:09.005Z,5.8
2018-11-06T10:49:08.768Z,5.8
2018-11-06T10:52:08.614Z,5.8
2018-11-06T10:55:08.813Z,5.8
2018-11-06T10:58:10.822Z,5.8
2018-11-06T11:01:09.026Z,6.2
2018-11-06T11:04:10.357Z,6.2
2018-11-06T11:07:08.972Z,6.2
2018-11-06T11:10:08.538Z,6.2
2018-11-06T11:13:08.600Z,6.2
2018-11-06T11:16:08.744Z,6.2
2018-11-06T11:19:08.497Z,6.2
2018-11-06T11:22:08.573Z,6.2
2018-11-06T11:25:08.797Z,6.2
2018-11-06T11:28:08.787Z,6.2
2018-11-06T11:31:08.544Z,6.2
2018-11-06T11:34:08.990Z,6.2
2018-11-06T11:37:08.984Z,6.2
2018-11-06T11:40:08.580Z,6.2
2018-11-06T11:43:08.828Z,6.2
2018-11-06T11:46:08.918Z,6.2
2018-11-06T11:49:08.783Z,6.2
2018-11-06T11:52:08.510Z,6.2
2018-11-06T11:55:08.600Z,6.2
2018-11-06T11:58:08.950Z,6.2
2018-11-06T12:01:08.853Z,6.5
2018-11-06T12:04:08.487Z,6.5
2018-11-06T12:07:08.743Z,6.5
2018-11-06T12:10:08.925Z,6.5
2018-11-06T12:13:08.560Z,6.5
2018-11-06T12:16:08.822Z,6.5
2018-11-06T12:19:08.989Z,6.5
2018-11-06T12:22:08.581Z,6.5
2018-11-06T12:25:13.391Z,6.5
2018-11-06T12:28:08.841Z,6.5
2018-11-06T12:31:08.541Z,6.5
2018-11-06T12:34:08.754Z,6.5
2018-11-06T12:37:10.495Z,6.5
2018-11-06T12:40:08.691Z,6.5
2018-11-06T12:43:11.472Z,6.5
2018-11-06T12:46:08.786Z,6.5
2018-11-06T12:49:08.487Z,6.5
2018-11-06T12:52:08.542Z,6.5
2018-11-06T12:55:08.647Z,6.5
2018-11-06T12:58:08.596Z,6.5
2018-11-06T13:01:08.629Z,6.8
2018-11-06T13:04:09.008Z,6.8
2018-11-06T13:07:08.972Z,6.8
2018-11-06T13:10:09.052Z,6.8
2018-11-06T13:13:08.967Z,6.8
2018-11-06T13:16:10.484Z,6.8
2018-11-06T13:19:08.550Z,6.8
2018-11-06T13:22:08.499Z,6.8
2018-11-06T13:25:08.636Z,6.8
2018-11-06T13:28:08.864Z,6.8
2018-11-06T13:31:08.476Z,6.8
2018-11-06T13:34:08.860Z,6.8
2018-11-06T13:37:08.830Z,6.8
2018-11-06T13:40:08.933Z,6.8
2018-11-06T13:43:10.540Z,6.8
2018-11-06T13:46:08.892Z,6.8
2018-11-06T13:49:09.020Z,6.8
2018-11-06T13:52:10.017Z,6.8
2018-11-06T13:55:09.015Z,6.8
2018-11-06T13:58:08.588Z,6.8
2018-11-06T14:01:08.914Z,6.9
2018-11-06T14:04:09.471Z,6.9
2018-11-06T14:07:08.841Z,6.9
2018-11-06T14:10:09.027Z,6.9
2018-11-06T14:13:08.991Z,6.9
2018-11-06T14:16:08.539Z,6.9
2018-11-06T14:19:08.516Z,6.9
2018-11-06T14:22:08.587Z,6.9
2018-11-06T14:25:08.676Z,6.9
2018-11-06T14:28:08.755Z,6.9
2018-11-06T14:31:08.820Z,6.9
2018-11-06T14:34:08.817Z,6.9
2018-11-06T14:37:08.423Z,6.9
2018-11-06T14:40:09.003Z,6.9
2018-11-06T14:43:08.639Z,6.9
2018-11-06T14:46:08.421Z,6.9
2018-11-06T14:49:09.202Z,6.9
2018-11-06T14:52:08.676Z,6.9
2018-11-06T14:55:08.647Z,6.9
2018-11-06T14:58:08.772Z,6.9
2018-11-06T15:01:08.604Z,7.1
2018-11-06T15:04:08.705Z,7.1
2018-11-06T15:07:08.711Z,7.1
2018-11-06T15:10:08.492Z,7.1
2018-11-06T15:13:08.613Z,7.1
2018-11-06T15:16:08.621Z,7.1
2018-11-06T15:19:08.663Z,7.1
2018-11-06T15:22:08.428Z,7.1
2018-11-06T15:25:08.487Z,7.1
2018-11-06T15:28:08.653Z,7.1
2018-11-06T15:31:08.521Z,7.1
2018-11-06T15:34:08.461Z,7.1
2018-11-06T15:37:08.542Z,7.1
2018-11-06T15:40:09.041Z,7.1
2018-11-06T15:43:08.604Z,7.1
2018-11-06T15:46:08.768Z,7.1
2018-11-06T15:49:10.818Z,7.1
2018-11-06T15:52:10.654Z,7.1
2018-11-06T15:55:08.565Z,7.1
2018-11-06T15:58:08.963Z,7.1
2018-11-06T16:01:09.996Z,7.3
2018-11-06T16:04:09.043Z,7.3
2018-11-06T16:07:09.105Z,7.3
2018-11-06T16:10:08.491Z,7.3
2018-11-06T16:13:08.550Z,7.3
2018-11-06T16:16:08.970Z,7.3
2018-11-06T16:19:08.471Z,7.3
2018-11-06T16:22:08.458Z,7.3
2018-11-06T16:25:08.486Z,7.3
2018-11-06T16:28:09.126Z,7.3
2018-11-06T16:31:08.353Z,7.3
2018-11-06T16:34:08.706Z,7.3
2018-11-06T16:37:08.696Z,7.3
2018-11-06T16:40:08.684Z,7.3
2018-11-06T16:43:08.449Z,7.3
2018-11-06T16:46:08.565Z,7.3
2018-11-06T16:49:08.872Z,7.3
2018-11-06T16:52:08.821Z,7.3
2018-11-06T16:55:08.430Z,7.3
2018-11-06T16:58:08.836Z,7.3
2018-11-06T17:01:12.910Z,7.5
2018-11-06T17:04:09.318Z,7.5
2018-11-06T17:07:08.920Z,7.5
2018-11-06T17:10:08.914Z,7.5
2018-11-06T17:13:08.875Z,7.5
2018-11-06T17:16:08.678Z,7.5
2018-11-06T17:19:08.578Z,7.5
2018-11-06T17:22:08.546Z,7.5
2018-11-06T17:25:08.444Z,7.5
2018-11-06T17:28:08.557Z,7.5
2018-11-06T17:31:08.974Z,7.5
2018-11-06T17:34:08.605Z,7.5
2018-11-06T17:37:08.436Z,7.5
2018-11-06T17:40:08.714Z,7.5
2018-11-06T17:43:08.737Z,7.5
2018-11-06T17:46:08.706Z,7.5
2018-11-06T17:49:08.472Z,7.5
2018-11-06T17:52:08.516Z,7.5
2018-11-06T17:55:10.765Z,7.5
2018-11-06T17:58:08.415Z,7.5
2018-11-06T18:01:08.458Z,7.7
2018-11-06T18:04:11.077Z,7.7
2018-11-06T18:07:08.597Z,7.7
2018-11-06T18:10:08.452Z,7.7
2018-11-06T18:13:08.596Z,7.7
2018-11-06T18:16:08.785Z,7.7
2018-11-06T18:19:08.384Z,7.7
2018-11-06T18:22:08.441Z,7.7
2018-11-06T18:25:10.354Z,7.7
2018-11-06T18:28:08.553Z,7.7
2018-11-06T18:31:08.505Z,7.7
2018-11-06T18:34:08.503Z,7.7
2018-11-06T18:37:09.069Z,7.7
2018-11-06T18:40:08.485Z,7.7
2018-11-06T18:43:08.618Z,7.7
2018-11-06T18:46:08.650Z,7.7
2018-11-06T18:49:08.369Z,7.7
2018-11-06T18:52:08.558Z,7.7
2018-11-06T18:55:08.561Z,7.7
2018-11-06T18:58:11.425Z,7.7
2018-11-06T19:01:08.341Z,7.8
2018-11-06T19:04:08.491Z,7.8
2018-11-06T19:07:08.438Z,7.8
2018-11-06T19:10:08.800Z,7.8
2018-11-06T19:13:08.828Z,7.8
2018-11-06T19:16:08.583Z,7.8
2018-11-06T19:19:08.618Z,7.8
2018-11-06T19:22:08.335Z,7.8
2018-11-06T19:25:08.393Z,7.8
2018-11-06T19:28:08.527Z,7.8
2018-11-06T19:31:08.339Z,7.8
2018-11-06T19:34:08.442Z,7.8
2018-11-06T19:37:08.512Z,7.8
2018-11-06T19:40:08.584Z,7.8
2018-11-06T19:43:08.767Z,7.8
2018-11-06T19:46:08.600Z,7.8
2018-11-06T19:49:08.454Z,7.8
2018-11-06T19:52:08.325Z,7.8
2018-11-06T19:55:08.419Z,7.8
2018-11-06T19:58:08.590Z,7.8
2018-11-06T20:01:10.438Z,7.9
2018-11-06T20:04:08.547Z,7.9
2018-11-06T20:07:08.646Z,7.9
2018-11-06T20:10:08.400Z,7.9
2018-11-06T20:13:08.543Z,7.9
2018-11-06T20:16:08.261Z,7.9
2018-11-06T20:19:08.446Z,7.9
2018-11-06T20:22:08.806Z,7.9
2018-11-06T20:25:08.477Z,7.9
2018-11-06T20:28:08.499Z,7.9
2018-11-06T20:31:08.393Z,7.9
2018-11-06T20:34:08.759Z,7.9
2018-11-06T20:37:08.409Z,7.9
2018-11-06T20:40:08.585Z,7.9
2018-11-06T20:43:10.002Z,7.9
2018-11-06T20:46:09.628Z,7.9
2018-11-06T20:49:08.770Z,7.9
2018-11-06T20:52:08.555Z,7.9
2018-11-06T20:55:08.321Z,7.9
2018-11-06T20:58:08.438Z,7.9
2018-11-06T21:01:09.996Z,8
2018-11-06T21:04:08.373Z,8
2018-11-06T21:07:08.542Z,8
2018-11-06T21:10:08.354Z,8
2018-11-06T21:13:10.086Z,8
2018-11-06T21:16:08.497Z,8
2018-11-06T21:19:08.580Z,8
2018-11-06T21:22:08.276Z,8
2018-11-06T21:25:10.421Z,8
2018-11-06T21:28:08.567Z,8
2018-11-06T21:31:08.835Z,8
2018-11-06T21:34:08.346Z,8
2018-11-06T21:37:08.316Z,8
2018-11-06T21:40:08.616Z,8
2018-11-06T21:43:08.642Z,8
2018-11-06T21:46:08.472Z,8
2018-11-06T21:49:08.602Z,8
2018-11-06T21:52:08.682Z,8
2018-11-06T21:55:08.301Z,8
2018-11-06T21:58:08.623Z,8
2018-11-06T22:01:08.861Z,8.1
2018-11-06T22:04:08.533Z,8.1
2018-11-06T22:07:08.341Z,8.1
2018-11-06T22:10:08.349Z,8.1
2018-11-06T22:13:10.791Z,8.1
2018-11-06T22:16:08.324Z,8.1
2018-11-06T22:19:08.338Z,8.1
2018-11-06T22:22:09.541Z,8.1
2018-11-06T22:25:08.475Z,8.1
2018-11-06T22:28:08.260Z,8.1
2018-11-06T22:31:08.379Z,8.1
2018-11-06T22:34:08.433Z,8.1
2018-11-06T22:37:10.410Z,8.1
2018-11-06T22:40:08.302Z,8.1
2018-11-06T22:43:08.403Z,8.1
2018-11-06T22:46:08.501Z,8.1
2018-11-06T22:49:08.992Z,8.1
2018-11-06T22:52:08.563Z,8.1
2018-11-06T22:55:08.657Z,8.1
2018-11-06T22:58:08.295Z,8.1
2018-11-06T23:01:08.499Z,8.2
2018-11-06T23:04:08.709Z,8.2
2018-11-06T23:07:13.874Z,8.2
2018-11-06T23:10:08.649Z,8.2
2018-11-06T23:13:08.307Z,8.2
2018-11-06T23:16:08.401Z,8.2
2018-11-06T23:19:08.244Z,8.2
2018-11-06T23:22:08.411Z,8.2
2018-11-06T23:25:10.355Z,8.2
2018-11-06T23:28:08.955Z,8.2
2018-11-06T23:31:08.218Z,8.2
2018-11-06T23:34:08.467Z,8.2
2018-11-06T23:37:08.481Z,8.2
2018-11-06T23:40:08.336Z,8.2
2018-11-06T23:43:08.789Z,8.2
2018-11-06T23:46:08.381Z,8.2
2018-11-06T23:49:08.300Z,8.2
2018-11-06T23:52:08.399Z,8.2
2018-11-06T23:55:09.918Z,8.2
2018-11-06T23:58:08.353Z,8.2
